sensor_id;sensor_type;location;lat;lon;timestamp;P1;durP1;ratioP1;P2;durP2;ratioP2
17917;SDS011;9084;50.956;3.106;2022-11-15T00:01:14;15.95;;;14.40;;
17917;SDS011;9084;50.956;3.106;2022-11-15T00:03:41;16.38;;;14.73;;
17917;SDS011;9084;50.956;3.106;2022-11-15T00:06:10;15.35;;;13.85;;
17917;SDS011;9084;50.956;3.106;2022-11-15T00:08:38;18.95;;;15.15;;
17917;SDS011;9084;50.956;3.106;2022-11-15T00:11:04;16.67;;;14.50;;
17917;SDS011;9084;50.956;3.106;2022-11-15T00:13:30;16.33;;;14.73;;
17917;SDS011;9084;50.956;3.106;2022-11-15T00:15:57;16.85;;;14.15;;
17917;SDS011;9084;50.956;3.106;2022-11-15T00:18:24;14.93;;;13.27;;
17917;SDS011;9084;50.956;3.106;2022-11-15T00:20:49;15.95;;;14.13;;
17917;SDS011;9084;50.956;3.106;2022-11-15T00:23:15;16.70;;;14.90;;
17917;SDS011;9084;50.956;3.106;2022-11-15T00:25:43;16.25;;;14.05;;
17917;SDS011;9084;50.956;3.106;2022-11-15T00:28:09;14.80;;;13.25;;
17917;SDS011;9084;50.956;3.106;2022-11-15T00:30:38;15.63;;;13.30;;
17917;SDS011;9084;50.956;3.106;2022-11-15T00:33:03;14.50;;;13.05;;
17917;SDS011;9084;50.956;3.106;2022-11-15T00:35:33;13.55;;;12.23;;
17917;SDS011;9084;50.956;3.106;2022-11-15T00:37:59;13.65;;;12.27;;
17917;SDS011;9084;50.956;3.106;2022-11-15T00:40:26;14.68;;;13.13;;
17917;SDS011;9084;50.956;3.106;2022-11-15T00:42:52;13.48;;;11.60;;
17917;SDS011;9084;50.956;3.106;2022-11-15T00:45:18;13.73;;;12.32;;
17917;SDS011;9084;50.956;3.106;2022-11-15T00:47:44;13.45;;;11.45;;
17917;SDS011;9084;50.956;3.106;2022-11-15T00:50:13;13.10;;;10.95;;
17917;SDS011;9084;50.956;3.106;2022-11-15T00:52:39;11.98;;;10.48;;
17917;SDS011;9084;50.956;3.106;2022-11-15T00:55:05;11.70;;;10.50;;
17917;SDS011;9084;50.956;3.106;2022-11-15T00:57:31;13.65;;;10.70;;
17917;SDS011;9084;50.956;3.106;2022-11-15T00:59:56;14.02;;;11.10;;
17917;SDS011;9084;50.956;3.106;2022-11-15T01:02:22;12.88;;;10.80;;
17917;SDS011;9084;50.956;3.106;2022-11-15T01:04:50;13.00;;;11.68;;
17917;SDS011;9084;50.956;3.106;2022-11-15T01:07:16;10.77;;;9.57;;
17917;SDS011;9084;50.956;3.106;2022-11-15T01:09:46;11.68;;;10.25;;
17917;SDS011;9084;50.956;3.106;2022-11-15T01:12:14;12.52;;;11.23;;
17917;SDS011;9084;50.956;3.106;2022-11-15T01:14:40;12.48;;;10.55;;
17917;SDS011;9084;50.956;3.106;2022-11-15T01:17:06;11.48;;;10.27;;
17917;SDS011;9084;50.956;3.106;2022-11-15T01:19:32;11.25;;;9.82;;
17917;SDS011;9084;50.956;3.106;2022-11-15T01:21:58;12.88;;;9.13;;
17917;SDS011;9084;50.956;3.106;2022-11-15T01:24:26;10.80;;;9.73;;
17917;SDS011;9084;50.956;3.106;2022-11-15T01:26:54;10.27;;;8.50;;
17917;SDS011;9084;50.956;3.106;2022-11-15T01:29:22;13.05;;;9.32;;
17917;SDS011;9084;50.956;3.106;2022-11-15T01:31:50;10.70;;;9.40;;
17917;SDS011;9084;50.956;3.106;2022-11-15T01:34:17;10.18;;;8.90;;
17917;SDS011;9084;50.956;3.106;2022-11-15T01:36:43;12.05;;;8.73;;
17917;SDS011;9084;50.956;3.106;2022-11-15T01:39:11;9.98;;;8.40;;
17917;SDS011;9084;50.956;3.106;2022-11-15T01:41:40;12.00;;;8.65;;
17917;SDS011;9084;50.956;3.106;2022-11-15T01:47:00;9.95;;;8.20;;
17917;SDS011;9084;50.956;3.106;2022-11-15T01:49:30;9.82;;;7.13;;
17917;SDS011;9084;50.956;3.106;2022-11-15T01:51:58;10.18;;;7.40;;
17917;SDS011;9084;50.956;3.106;2022-11-15T01:54:28;8.77;;;7.03;;
17917;SDS011;9084;50.956;3.106;2022-11-15T01:57:01;11.95;;;8.10;;
17917;SDS011;9084;50.956;3.106;2022-11-15T01:59:30;8.55;;;6.68;;
17917;SDS011;9084;50.956;3.106;2022-11-15T02:01:56;10.15;;;6.50;;
17917;SDS011;9084;50.956;3.106;2022-11-15T02:04:26;10.10;;;6.72;;
17917;SDS011;9084;50.956;3.106;2022-11-15T02:06:54;9.00;;;5.82;;
17917;SDS011;9084;50.956;3.106;2022-11-15T02:09:22;9.00;;;5.93;;
17917;SDS011;9084;50.956;3.106;2022-11-15T02:11:48;10.77;;;5.57;;
17917;SDS011;9084;50.956;3.106;2022-11-15T02:14:15;9.23;;;5.63;;
17917;SDS011;9084;50.956;3.106;2022-11-15T02:30:21;9.18;;;3.90;;
17917;SDS011;9084;50.956;3.106;2022-11-15T02:38:29;4.60;;;2.95;;
17917;SDS011;9084;50.956;3.106;2022-11-15T02:43:34;4.95;;;2.83;;
17917;SDS011;9084;50.956;3.106;2022-11-15T02:49:34;6.40;;;2.88;;
17917;SDS011;9084;50.956;3.106;2022-11-15T02:52:02;4.32;;;2.47;;
17917;SDS011;9084;50.956;3.106;2022-11-15T02:54:30;4.90;;;2.38;;
17917;SDS011;9084;50.956;3.106;2022-11-15T02:57:01;4.57;;;2.45;;
17917;SDS011;9084;50.956;3.106;2022-11-15T02:59:53;6.30;;;2.47;;
17917;SDS011;9084;50.956;3.106;2022-11-15T03:08:18;4.40;;;1.98;;
17917;SDS011;9084;50.956;3.106;2022-11-15T03:11:09;4.65;;;2.03;;
17917;SDS011;9084;50.956;3.106;2022-11-15T03:13:46;4.07;;;2.17;;
17917;SDS011;9084;50.956;3.106;2022-11-15T03:16:37;8.85;;;3.33;;
17917;SDS011;9084;50.956;3.106;2022-11-15T03:19:09;4.68;;;2.30;;
17917;SDS011;9084;50.956;3.106;2022-11-15T03:21:39;7.03;;;2.92;;
17917;SDS011;9084;50.956;3.106;2022-11-15T03:24:08;4.20;;;2.58;;
17917;SDS011;9084;50.956;3.106;2022-11-15T03:26:36;6.40;;;2.92;;
17917;SDS011;9084;50.956;3.106;2022-11-15T03:29:12;5.75;;;2.78;;
17917;SDS011;9084;50.956;3.106;2022-11-15T03:31:46;5.68;;;3.05;;
17917;SDS011;9084;50.956;3.106;2022-11-15T03:37:01;5.88;;;3.58;;
17917;SDS011;9084;50.956;3.106;2022-11-15T03:39:26;5.93;;;3.70;;
17917;SDS011;9084;50.956;3.106;2022-11-15T03:44:44;11.13;;;4.25;;
17917;SDS011;9084;50.956;3.106;2022-11-15T03:47:27;9.10;;;4.75;;
17917;SDS011;9084;50.956;3.106;2022-11-15T03:49:59;6.32;;;4.25;;
17917;SDS011;9084;50.956;3.106;2022-11-15T03:52:31;6.35;;;4.18;;
17917;SDS011;9084;50.956;3.106;2022-11-15T03:55:02;5.25;;;4.50;;
17917;SDS011;9084;50.956;3.106;2022-11-15T03:57:29;5.32;;;4.40;;
17917;SDS011;9084;50.956;3.106;2022-11-15T03:59:55;9.40;;;5.15;;
17917;SDS011;9084;50.956;3.106;2022-11-15T04:02:23;5.63;;;4.72;;
17917;SDS011;9084;50.956;3.106;2022-11-15T04:04:51;8.00;;;4.60;;
17917;SDS011;9084;50.956;3.106;2022-11-15T04:07:17;6.10;;;4.50;;
17917;SDS011;9084;50.956;3.106;2022-11-15T04:09:45;8.30;;;4.75;;
17917;SDS011;9084;50.956;3.106;2022-11-15T04:12:31;8.07;;;4.70;;
17917;SDS011;9084;50.956;3.106;2022-11-15T04:15:04;6.75;;;4.70;;
17917;SDS011;9084;50.956;3.106;2022-11-15T04:17:36;7.65;;;4.38;;
17917;SDS011;9084;50.956;3.106;2022-11-15T04:20:06;5.78;;;4.32;;
17917;SDS011;9084;50.956;3.106;2022-11-15T04:22:59;4.95;;;3.83;;
17917;SDS011;9084;50.956;3.106;2022-11-15T04:25:45;8.13;;;4.20;;
17917;SDS011;9084;50.956;3.106;2022-11-15T04:28:14;8.73;;;4.38;;
17917;SDS011;9084;50.956;3.106;2022-11-15T04:30:40;8.05;;;4.85;;
17917;SDS011;9084;50.956;3.106;2022-11-15T04:33:06;4.90;;;4.38;;
17917;SDS011;9084;50.956;3.106;2022-11-15T04:35:33;7.00;;;4.38;;
17917;SDS011;9084;50.956;3.106;2022-11-15T04:38:00;7.50;;;5.85;;
17917;SDS011;9084;50.956;3.106;2022-11-15T04:40:26;5.97;;;4.53;;
17917;SDS011;9084;50.956;3.106;2022-11-15T04:42:55;9.35;;;5.82;;
17917;SDS011;9084;50.956;3.106;2022-11-15T04:45:21;8.35;;;5.18;;
17917;SDS011;9084;50.956;3.106;2022-11-15T04:47:47;5.38;;;4.60;;
17917;SDS011;9084;50.956;3.106;2022-11-15T04:50:13;5.38;;;4.20;;
17917;SDS011;9084;50.956;3.106;2022-11-15T04:52:41;6.13;;;4.45;;
17917;SDS011;9084;50.956;3.106;2022-11-15T04:55:09;8.73;;;4.53;;
17917;SDS011;9084;50.956;3.106;2022-11-15T04:57:36;5.53;;;4.18;;
17917;SDS011;9084;50.956;3.106;2022-11-15T05:00:05;7.40;;;5.10;;
17917;SDS011;9084;50.956;3.106;2022-11-15T05:02:34;7.60;;;5.82;;
17917;SDS011;9084;50.956;3.106;2022-11-15T05:05:18;5.25;;;4.45;;
17917;SDS011;9084;50.956;3.106;2022-11-15T05:07:47;6.22;;;5.43;;
17917;SDS011;9084;50.956;3.106;2022-11-15T05:10:15;5.47;;;4.97;;
17917;SDS011;9084;50.956;3.106;2022-11-15T05:12:46;7.82;;;6.07;;
17917;SDS011;9084;50.956;3.106;2022-11-15T05:15:13;5.05;;;4.55;;
17917;SDS011;9084;50.956;3.106;2022-11-15T05:17:43;5.60;;;4.57;;
17917;SDS011;9084;50.956;3.106;2022-11-15T05:20:14;7.05;;;4.47;;
17917;SDS011;9084;50.956;3.106;2022-11-15T05:22:40;5.07;;;4.30;;
17917;SDS011;9084;50.956;3.106;2022-11-15T05:25:06;6.25;;;4.40;;
17917;SDS011;9084;50.956;3.106;2022-11-15T05:27:33;4.53;;;3.77;;
17917;SDS011;9084;50.956;3.106;2022-11-15T05:30:02;7.22;;;4.13;;
17917;SDS011;9084;50.956;3.106;2022-11-15T05:32:28;7.22;;;3.85;;
17917;SDS011;9084;50.956;3.106;2022-11-15T05:34:54;4.78;;;3.30;;
17917;SDS011;9084;50.956;3.106;2022-11-15T05:37:20;3.42;;;3.13;;
17917;SDS011;9084;50.956;3.106;2022-11-15T05:39:49;5.35;;;3.15;;
17917;SDS011;9084;50.956;3.106;2022-11-15T05:42:15;4.60;;;3.35;;
17917;SDS011;9084;50.956;3.106;2022-11-15T05:44:43;6.32;;;3.78;;
17917;SDS011;9084;50.956;3.106;2022-11-15T05:47:13;6.53;;;4.28;;
17917;SDS011;9084;50.956;3.106;2022-11-15T05:49:44;4.93;;;3.20;;
17917;SDS011;9084;50.956;3.106;2022-11-15T05:52:11;7.22;;;3.70;;
17917;SDS011;9084;50.956;3.106;2022-11-15T05:54:43;3.70;;;3.40;;
17917;SDS011;9084;50.956;3.106;2022-11-15T05:57:12;7.95;;;4.80;;
17917;SDS011;9084;50.956;3.106;2022-11-15T05:59:40;7.07;;;3.80;;
17917;SDS011;9084;50.956;3.106;2022-11-15T06:02:11;5.72;;;3.38;;
17917;SDS011;9084;50.956;3.106;2022-11-15T06:04:41;5.00;;;3.72;;
17917;SDS011;9084;50.956;3.106;2022-11-15T06:07:09;4.87;;;3.47;;
17917;SDS011;9084;50.956;3.106;2022-11-15T06:09:38;5.23;;;4.20;;
17917;SDS011;9084;50.956;3.106;2022-11-15T06:12:04;7.23;;;3.47;;
17917;SDS011;9084;50.956;3.106;2022-11-15T06:14:35;7.43;;;3.80;;
17917;SDS011;9084;50.956;3.106;2022-11-15T06:17:00;8.43;;;4.13;;
17917;SDS011;9084;50.956;3.106;2022-11-15T06:19:28;6.05;;;4.25;;
17917;SDS011;9084;50.956;3.106;2022-11-15T06:21:57;5.77;;;4.17;;
17917;SDS011;9084;50.956;3.106;2022-11-15T06:24:27;5.55;;;4.88;;
17917;SDS011;9084;50.956;3.106;2022-11-15T06:26:53;5.83;;;4.20;;
17917;SDS011;9084;50.956;3.106;2022-11-15T06:29:22;6.37;;;4.80;;
17917;SDS011;9084;50.956;3.106;2022-11-15T06:31:48;7.68;;;4.82;;
17917;SDS011;9084;50.956;3.106;2022-11-15T06:34:14;6.00;;;4.65;;
17917;SDS011;9084;50.956;3.106;2022-11-15T06:36:39;5.05;;;4.43;;
17917;SDS011;9084;50.956;3.106;2022-11-15T06:39:07;7.83;;;5.20;;
17917;SDS011;9084;50.956;3.106;2022-11-15T06:41:34;7.03;;;4.60;;
17917;SDS011;9084;50.956;3.106;2022-11-15T06:44:02;5.32;;;4.82;;
17917;SDS011;9084;50.956;3.106;2022-11-15T06:46:30;5.45;;;4.85;;
17917;SDS011;9084;50.956;3.106;2022-11-15T06:48:58;6.53;;;5.93;;
17917;SDS011;9084;50.956;3.106;2022-11-15T06:51:27;6.57;;;5.60;;
17917;SDS011;9084;50.956;3.106;2022-11-15T06:53:52;8.93;;;7.10;;
17917;SDS011;9084;50.956;3.106;2022-11-15T06:56:18;6.88;;;6.07;;
17917;SDS011;9084;50.956;3.106;2022-11-15T06:58:44;8.25;;;6.30;;
17917;SDS011;9084;50.956;3.106;2022-11-15T07:01:11;8.88;;;6.03;;
17917;SDS011;9084;50.956;3.106;2022-11-15T07:03:38;8.48;;;6.35;;
17917;SDS011;9084;50.956;3.106;2022-11-15T07:06:06;9.50;;;7.43;;
17917;SDS011;9084;50.956;3.106;2022-11-15T07:08:35;9.43;;;7.70;;
17917;SDS011;9084;50.956;3.106;2022-11-15T07:11:09;8.27;;;7.37;;
17917;SDS011;9084;50.956;3.106;2022-11-15T07:13:35;13.27;;;8.43;;
17917;SDS011;9084;50.956;3.106;2022-11-15T07:16:05;10.05;;;8.88;;
17917;SDS011;9084;50.956;3.106;2022-11-15T07:18:36;11.30;;;10.13;;
17917;SDS011;9084;50.956;3.106;2022-11-15T07:21:06;11.30;;;10.30;;
17917;SDS011;9084;50.956;3.106;2022-11-15T07:23:37;9.93;;;8.70;;
17917;SDS011;9084;50.956;3.106;2022-11-15T07:26:03;10.70;;;8.55;;
17917;SDS011;9084;50.956;3.106;2022-11-15T07:28:35;11.77;;;9.20;;
17917;SDS011;9084;50.956;3.106;2022-11-15T07:31:06;9.23;;;8.35;;
17917;SDS011;9084;50.956;3.106;2022-11-15T07:33:33;10.48;;;9.15;;
17917;SDS011;9084;50.956;3.106;2022-11-15T07:36:03;10.73;;;9.73;;
17917;SDS011;9084;50.956;3.106;2022-11-15T07:38:31;10.98;;;9.98;;
17917;SDS011;9084;50.956;3.106;2022-11-15T07:41:02;14.52;;;10.27;;
17917;SDS011;9084;50.956;3.106;2022-11-15T07:43:29;10.57;;;9.50;;
17917;SDS011;9084;50.956;3.106;2022-11-15T07:46:03;10.55;;;9.15;;
17917;SDS011;9084;50.956;3.106;2022-11-15T07:48:32;11.15;;;9.52;;
17917;SDS011;9084;50.956;3.106;2022-11-15T07:50:58;10.80;;;9.77;;
17917;SDS011;9084;50.956;3.106;2022-11-15T07:53:24;10.18;;;9.35;;
17917;SDS011;9084;50.956;3.106;2022-11-15T07:55:50;8.85;;;7.97;;
17917;SDS011;9084;50.956;3.106;2022-11-15T07:58:15;8.75;;;7.85;;
17917;SDS011;9084;50.956;3.106;2022-11-15T08:00:42;9.63;;;7.35;;
17917;SDS011;9084;50.956;3.106;2022-11-15T08:03:10;8.02;;;7.03;;
17917;SDS011;9084;50.956;3.106;2022-11-15T08:05:37;7.90;;;6.65;;
17917;SDS011;9084;50.956;3.106;2022-11-15T08:08:09;7.88;;;7.18;;
17917;SDS011;9084;50.956;3.106;2022-11-15T08:10:36;6.40;;;5.75;;
17917;SDS011;9084;50.956;3.106;2022-11-15T08:13:03;8.02;;;6.03;;
17917;SDS011;9084;50.956;3.106;2022-11-15T08:15:31;6.53;;;4.70;;
17917;SDS011;9084;50.956;3.106;2022-11-15T08:17:59;5.47;;;3.85;;
17917;SDS011;9084;50.956;3.106;2022-11-15T08:20:27;3.38;;;3.08;;
17917;SDS011;9084;50.956;3.106;2022-11-15T08:22:56;5.03;;;3.40;;
17917;SDS011;9084;50.956;3.106;2022-11-15T08:25:25;4.13;;;3.65;;
17917;SDS011;9084;50.956;3.106;2022-11-15T08:27:53;3.47;;;2.95;;
17917;SDS011;9084;50.956;3.106;2022-11-15T08:30:19;6.13;;;3.28;;
17917;SDS011;9084;50.956;3.106;2022-11-15T08:32:49;4.75;;;2.80;;
17917;SDS011;9084;50.956;3.106;2022-11-15T08:35:15;3.97;;;2.47;;
17917;SDS011;9084;50.956;3.106;2022-11-15T08:37:43;5.30;;;2.95;;
17917;SDS011;9084;50.956;3.106;2022-11-15T08:40:12;4.38;;;2.53;;
17917;SDS011;9084;50.956;3.106;2022-11-15T08:42:40;4.22;;;2.30;;
17917;SDS011;9084;50.956;3.106;2022-11-15T08:45:07;5.45;;;2.85;;
17917;SDS011;9084;50.956;3.106;2022-11-15T08:47:34;5.32;;;2.47;;
17917;SDS011;9084;50.956;3.106;2022-11-15T08:50:02;4.00;;;2.70;;
17917;SDS011;9084;50.956;3.106;2022-11-15T08:52:29;4.20;;;2.50;;
17917;SDS011;9084;50.956;3.106;2022-11-15T08:54:54;8.93;;;3.33;;
17917;SDS011;9084;50.956;3.106;2022-11-15T08:57:20;7.10;;;2.83;;
17917;SDS011;9084;50.956;3.106;2022-11-15T08:59:48;3.75;;;2.60;;
17917;SDS011;9084;50.956;3.106;2022-11-15T09:02:14;4.43;;;2.17;;
17917;SDS011;9084;50.956;3.106;2022-11-15T09:04:43;5.07;;;2.50;;
17917;SDS011;9084;50.956;3.106;2022-11-15T09:07:12;5.80;;;2.67;;
17917;SDS011;9084;50.956;3.106;2022-11-15T09:09:38;3.90;;;2.03;;
17917;SDS011;9084;50.956;3.106;2022-11-15T09:12:05;5.05;;;1.95;;
17917;SDS011;9084;50.956;3.106;2022-11-15T09:14:34;3.97;;;1.98;;
17917;SDS011;9084;50.956;3.106;2022-11-15T09:17:00;5.43;;;2.47;;
17917;SDS011;9084;50.956;3.106;2022-11-15T09:19:27;5.22;;;2.10;;
17917;SDS011;9084;50.956;3.106;2022-11-15T09:21:53;3.22;;;1.63;;
17917;SDS011;9084;50.956;3.106;2022-11-15T09:24:23;6.50;;;2.10;;
17917;SDS011;9084;50.956;3.106;2022-11-15T09:26:52;7.78;;;1.92;;
17917;SDS011;9084;50.956;3.106;2022-11-15T09:29:18;3.53;;;1.65;;
17917;SDS011;9084;50.956;3.106;2022-11-15T09:31:44;2.45;;;1.50;;
17917;SDS011;9084;50.956;3.106;2022-11-15T09:34:11;5.05;;;2.15;;
17917;SDS011;9084;50.956;3.106;2022-11-15T09:36:36;5.43;;;1.55;;
17917;SDS011;9084;50.956;3.106;2022-11-15T09:39:07;6.05;;;1.88;;
17917;SDS011;9084;50.956;3.106;2022-11-15T09:46:49;4.45;;;1.50;;
17917;SDS011;9084;50.956;3.106;2022-11-15T09:49:32;5.07;;;1.52;;
17917;SDS011;9084;50.956;3.106;2022-11-15T09:51:58;3.15;;;1.38;;
17917;SDS011;9084;50.956;3.106;2022-11-15T09:54:34;5.28;;;1.20;;
17917;SDS011;9084;50.956;3.106;2022-11-15T10:03:11;2.22;;;1.13;;
17917;SDS011;9084;50.956;3.106;2022-11-15T10:05:20;6.05;;;1.35;;
17917;SDS011;9084;50.956;3.106;2022-11-15T10:10:41;6.70;;;1.75;;
17917;SDS011;9084;50.956;3.106;2022-11-15T10:13:14;4.28;;;1.33;;
17917;SDS011;9084;50.956;3.106;2022-11-15T10:15:51;5.93;;;1.50;;
17917;SDS011;9084;50.956;3.106;2022-11-15T10:18:26;5.35;;;1.08;;
17917;SDS011;9084;50.956;3.106;2022-11-15T10:21:17;2.92;;;1.33;;
17917;SDS011;9084;50.956;3.106;2022-11-15T10:23:48;4.50;;;1.65;;
17917;SDS011;9084;50.956;3.106;2022-11-15T10:26:16;3.72;;;1.42;;
17917;SDS011;9084;50.956;3.106;2022-11-15T10:28:42;3.22;;;0.82;;
17917;SDS011;9084;50.956;3.106;2022-11-15T10:31:22;5.15;;;1.70;;
17917;SDS011;9084;50.956;3.106;2022-11-15T10:33:50;4.15;;;1.60;;
17917;SDS011;9084;50.956;3.106;2022-11-15T10:36:22;3.45;;;0.95;;
17917;SDS011;9084;50.956;3.106;2022-11-15T10:49:26;6.47;;;1.63;;
17917;SDS011;9084;50.956;3.106;2022-11-15T10:54:41;2.95;;;0.88;;
17917;SDS011;9084;50.956;3.106;2022-11-15T10:59:49;4.57;;;1.17;;
17917;SDS011;9084;50.956;3.106;2022-11-15T11:04:58;3.65;;;1.38;;
17917;SDS011;9084;50.956;3.106;2022-11-15T11:07:26;3.92;;;1.20;;
17917;SDS011;9084;50.956;3.106;2022-11-15T11:10:01;3.78;;;1.40;;
17917;SDS011;9084;50.956;3.106;2022-11-15T11:12:42;5.07;;;1.20;;
17917;SDS011;9084;50.956;3.106;2022-11-15T11:15:12;4.57;;;1.20;;
17917;SDS011;9084;50.956;3.106;2022-11-15T11:20:38;3.17;;;1.17;;
17917;SDS011;9084;50.956;3.106;2022-11-15T11:39:32;2.95;;;1.33;;
17917;SDS011;9084;50.956;3.106;2022-11-15T11:48:14;1.95;;;1.13;;
17917;SDS011;9084;50.956;3.106;2022-11-15T11:50:57;4.72;;;1.70;;
17917;SDS011;9084;50.956;3.106;2022-11-15T11:53:45;2.33;;;1.40;;
17917;SDS011;9084;50.956;3.106;2022-11-15T11:56:31;3.05;;;1.35;;
17917;SDS011;9084;50.956;3.106;2022-11-15T11:59:11;2.15;;;1.20;;
17917;SDS011;9084;50.956;3.106;2022-11-15T12:01:45;5.15;;;1.58;;
17917;SDS011;9084;50.956;3.106;2022-11-15T12:04:19;4.95;;;1.30;;
17917;SDS011;9084;50.956;3.106;2022-11-15T12:07:07;1.67;;;1.30;;
17917;SDS011;9084;50.956;3.106;2022-11-15T12:09:50;5.45;;;1.63;;
17917;SDS011;9084;50.956;3.106;2022-11-15T12:13:28;5.03;;;1.92;;
17917;SDS011;9084;50.956;3.106;2022-11-15T12:15:24;2.95;;;1.35;;
17917;SDS011;9084;50.956;3.106;2022-11-15T12:17:56;3.85;;;1.50;;
17917;SDS011;9084;50.956;3.106;2022-11-15T12:20:30;2.28;;;1.00;;
17917;SDS011;9084;50.956;3.106;2022-11-15T12:23:07;5.43;;;1.67;;
17917;SDS011;9084;50.956;3.106;2022-11-15T12:28:35;4.63;;;1.50;;
17917;SDS011;9084;50.956;3.106;2022-11-15T12:31:22;5.18;;;1.33;;
17917;SDS011;9084;50.956;3.106;2022-11-15T12:36:49;3.35;;;1.55;;
17917;SDS011;9084;50.956;3.106;2022-11-15T12:39:16;2.63;;;1.42;;
17917;SDS011;9084;50.956;3.106;2022-11-15T12:47:24;2.30;;;1.63;;
17917;SDS011;9084;50.956;3.106;2022-11-15T12:49:52;3.00;;;1.48;;
17917;SDS011;9084;50.956;3.106;2022-11-15T12:52:18;4.80;;;1.70;;
17917;SDS011;9084;50.956;3.106;2022-11-15T12:54:51;2.38;;;1.40;;
17917;SDS011;9084;50.956;3.106;2022-11-15T13:02:32;2.28;;;1.42;;
17917;SDS011;9084;50.956;3.106;2022-11-15T13:17:54;2.53;;;1.70;;
17917;SDS011;9084;50.956;3.106;2022-11-15T13:25:38;4.03;;;1.83;;
17917;SDS011;9084;50.956;3.106;2022-11-15T13:28:32;4.43;;;2.33;;
17917;SDS011;9084;50.956;3.106;2022-11-15T13:33:48;2.75;;;1.90;;
17917;SDS011;9084;50.956;3.106;2022-11-15T13:38:42;2.17;;;1.88;;
17917;SDS011;9084;50.956;3.106;2022-11-15T13:41:13;3.08;;;1.88;;
17917;SDS011;9084;50.956;3.106;2022-11-15T13:43:45;2.13;;;1.92;;
17917;SDS011;9084;50.956;3.106;2022-11-15T13:46:19;4.18;;;2.17;;
17917;SDS011;9084;50.956;3.106;2022-11-15T13:48:51;2.63;;;1.60;;
17917;SDS011;9084;50.956;3.106;2022-11-15T13:54:20;3.30;;;1.95;;
17917;SDS011;9084;50.956;3.106;2022-11-15T13:56:54;3.67;;;2.08;;
17917;SDS011;9084;50.956;3.106;2022-11-15T14:01:49;1.83;;;1.48;;
17917;SDS011;9084;50.956;3.106;2022-11-15T14:04:21;4.47;;;2.28;;
17917;SDS011;9084;50.956;3.106;2022-11-15T14:06:53;5.40;;;2.00;;
17917;SDS011;9084;50.956;3.106;2022-11-15T14:09:39;4.60;;;1.85;;
17917;SDS011;9084;50.956;3.106;2022-11-15T14:14:57;3.28;;;1.80;;
17917;SDS011;9084;50.956;3.106;2022-11-15T14:19:56;4.82;;;1.70;;
17917;SDS011;9084;50.956;3.106;2022-11-15T14:22:23;3.03;;;1.50;;
17917;SDS011;9084;50.956;3.106;2022-11-15T14:25:13;2.47;;;1.60;;
17917;SDS011;9084;50.956;3.106;2022-11-15T14:27:40;2.85;;;2.00;;
17917;SDS011;9084;50.956;3.106;2022-11-15T14:30:12;2.95;;;2.00;;
17917;SDS011;9084;50.956;3.106;2022-11-15T14:32:44;4.50;;;1.70;;
17917;SDS011;9084;50.956;3.106;2022-11-15T14:35:18;3.63;;;1.88;;
17917;SDS011;9084;50.956;3.106;2022-11-15T14:37:45;4.00;;;2.03;;
17917;SDS011;9084;50.956;3.106;2022-11-15T14:40:13;4.43;;;2.53;;
17917;SDS011;9084;50.956;3.106;2022-11-15T14:42:40;2.92;;;1.80;;
17917;SDS011;9084;50.956;3.106;2022-11-15T14:47:43;3.67;;;2.38;;
17917;SDS011;9084;50.956;3.106;2022-11-15T14:50:13;3.15;;;2.38;;
17917;SDS011;9084;50.956;3.106;2022-11-15T14:52:43;2.40;;;2.20;;
17917;SDS011;9084;50.956;3.106;2022-11-15T14:55:13;3.95;;;2.30;;
17917;SDS011;9084;50.956;3.106;2022-11-15T14:57:51;2.55;;;2.05;;
17917;SDS011;9084;50.956;3.106;2022-11-15T15:00:22;2.15;;;1.80;;
17917;SDS011;9084;50.956;3.106;2022-11-15T15:02:48;3.88;;;2.22;;
17917;SDS011;9084;50.956;3.106;2022-11-15T15:07:48;4.63;;;2.25;;
17917;SDS011;9084;50.956;3.106;2022-11-15T15:10:16;2.45;;;2.03;;
17917;SDS011;9084;50.956;3.106;2022-11-15T15:12:47;2.67;;;2.30;;
17917;SDS011;9084;50.956;3.106;2022-11-15T15:15:20;3.15;;;2.20;;
17917;SDS011;9084;50.956;3.106;2022-11-15T15:17:51;2.80;;;2.40;;
17917;SDS011;9084;50.956;3.106;2022-11-15T15:20:19;2.38;;;2.17;;
17917;SDS011;9084;50.956;3.106;2022-11-15T15:22:45;3.33;;;2.58;;
17917;SDS011;9084;50.956;3.106;2022-11-15T15:25:23;4.93;;;3.08;;
17917;SDS011;9084;50.956;3.106;2022-11-15T15:27:55;2.88;;;2.42;;
17917;SDS011;9084;50.956;3.106;2022-11-15T15:30:21;2.92;;;2.72;;
17917;SDS011;9084;50.956;3.106;2022-11-15T15:32:48;3.13;;;2.53;;
17917;SDS011;9084;50.956;3.106;2022-11-15T15:35:16;3.45;;;2.80;;
17917;SDS011;9084;50.956;3.106;2022-11-15T15:37:46;3.47;;;2.55;;
17917;SDS011;9084;50.956;3.106;2022-11-15T15:40:19;2.88;;;2.50;;
17917;SDS011;9084;50.956;3.106;2022-11-15T15:42:49;3.83;;;2.53;;
17917;SDS011;9084;50.956;3.106;2022-11-15T15:45:16;2.55;;;2.35;;
17917;SDS011;9084;50.956;3.106;2022-11-15T15:47:43;2.83;;;2.58;;
17917;SDS011;9084;50.956;3.106;2022-11-15T15:50:20;3.22;;;3.03;;
17917;SDS011;9084;50.956;3.106;2022-11-15T15:52:50;3.00;;;2.80;;
17917;SDS011;9084;50.956;3.106;2022-11-15T15:55:17;5.82;;;5.38;;
17917;SDS011;9084;50.956;3.106;2022-11-15T15:57:43;4.70;;;4.30;;
17917;SDS011;9084;50.956;3.106;2022-11-15T16:00:12;3.92;;;3.10;;
17917;SDS011;9084;50.956;3.106;2022-11-15T16:02:38;3.00;;;2.75;;
17917;SDS011;9084;50.956;3.106;2022-11-15T16:05:09;4.50;;;4.20;;
17917;SDS011;9084;50.956;3.106;2022-11-15T16:07:36;4.35;;;2.95;;
17917;SDS011;9084;50.956;3.106;2022-11-15T16:10:14;3.95;;;3.65;;
17917;SDS011;9084;50.956;3.106;2022-11-15T16:12:44;3.85;;;3.53;;
17917;SDS011;9084;50.956;3.106;2022-11-15T16:15:10;4.05;;;2.85;;
17917;SDS011;9084;50.956;3.106;2022-11-15T16:17:38;3.40;;;3.20;;
17917;SDS011;9084;50.956;3.106;2022-11-15T16:20:08;4.38;;;3.55;;
17917;SDS011;9084;50.956;3.106;2022-11-15T16:23:02;3.42;;;3.13;;
17917;SDS011;9084;50.956;3.106;2022-11-15T16:25:33;4.53;;;4.13;;
17917;SDS011;9084;50.956;3.106;2022-11-15T16:31:11;3.80;;;3.40;;
17917;SDS011;9084;50.956;3.106;2022-11-15T16:33:38;2.85;;;2.65;;
17917;SDS011;9084;50.956;3.106;2022-11-15T16:36:05;4.38;;;4.05;;
17917;SDS011;9084;50.956;3.106;2022-11-15T16:38:37;3.47;;;3.15;;
17917;SDS011;9084;50.956;3.106;2022-11-15T16:41:04;3.70;;;3.50;;
17917;SDS011;9084;50.956;3.106;2022-11-15T16:43:29;3.60;;;3.30;;
17917;SDS011;9084;50.956;3.106;2022-11-15T16:45:55;3.92;;;3.63;;
17917;SDS011;9084;50.956;3.106;2022-11-15T16:48:25;3.35;;;3.13;;
17917;SDS011;9084;50.956;3.106;2022-11-15T16:50:55;3.85;;;3.42;;
17917;SDS011;9084;50.956;3.106;2022-11-15T16:53:23;3.80;;;3.50;;
17917;SDS011;9084;50.956;3.106;2022-11-15T16:55:50;3.80;;;3.50;;
17917;SDS011;9084;50.956;3.106;2022-11-15T16:58:19;4.10;;;3.80;;
17917;SDS011;9084;50.956;3.106;2022-11-15T17:00:46;4.40;;;3.70;;
17917;SDS011;9084;50.956;3.106;2022-11-15T17:03:19;3.80;;;3.50;;
17917;SDS011;9084;50.956;3.106;2022-11-15T17:05:48;4.13;;;3.50;;
17917;SDS011;9084;50.956;3.106;2022-11-15T17:08:17;4.18;;;3.50;;
17917;SDS011;9084;50.956;3.106;2022-11-15T17:10:45;3.40;;;3.10;;
17917;SDS011;9084;50.956;3.106;2022-11-15T17:13:14;3.88;;;3.58;;
17917;SDS011;9084;50.956;3.106;2022-11-15T17:15:39;4.50;;;4.20;;
17917;SDS011;9084;50.956;3.106;2022-11-15T17:18:06;4.47;;;4.07;;
17917;SDS011;9084;50.956;3.106;2022-11-15T17:20:39;4.30;;;4.00;;
17917;SDS011;9084;50.956;3.106;2022-11-15T17:23:09;3.70;;;3.45;;
17917;SDS011;9084;50.956;3.106;2022-11-15T17:25:41;4.28;;;3.88;;
17917;SDS011;9084;50.956;3.106;2022-11-15T17:28:07;3.45;;;3.22;;
17917;SDS011;9084;50.956;3.106;2022-11-15T17:30:33;3.80;;;3.50;;
17917;SDS011;9084;50.956;3.106;2022-11-15T17:33:01;3.92;;;3.63;;
17917;SDS011;9084;50.956;3.106;2022-11-15T17:35:27;4.70;;;3.75;;
17917;SDS011;9084;50.956;3.106;2022-11-15T17:37:55;4.53;;;4.20;;
17917;SDS011;9084;50.956;3.106;2022-11-15T17:40:21;4.63;;;3.85;;
17917;SDS011;9084;50.956;3.106;2022-11-15T17:42:50;3.70;;;3.40;;
17917;SDS011;9084;50.956;3.106;2022-11-15T17:45:15;4.32;;;3.92;;
17917;SDS011;9084;50.956;3.106;2022-11-15T17:47:42;4.22;;;3.83;;
17917;SDS011;9084;50.956;3.106;2022-11-15T17:50:08;4.25;;;3.83;;